sensor_id;sensor_type;location;lat;lon;timestamp;P1;durP1;ratioP1;P2;durP2;ratioP2
75542;SDS011;64129;53.508;10.476;2022-12-18T00:01:22;15.52;;;9.38;;
75542;SDS011;64129;53.508;10.476;2022-12-18T00:03:57;17.13;;;9.05;;
75542;SDS011;64129;53.508;10.476;2022-12-18T00:06:24;17.48;;;9.80;;
75542;SDS011;64129;53.508;10.476;2022-12-18T00:08:52;15.25;;;9.43;;
75542;SDS011;64129;53.508;10.476;2022-12-18T00:11:21;16.67;;;8.90;;
75542;SDS011;64129;53.508;10.476;2022-12-18T00:13:49;17.88;;;9.23;;
75542;SDS011;64129;53.508;10.476;2022-12-18T00:16:20;15.93;;;9.70;;
75542;SDS011;64129;53.508;10.476;2022-12-18T00:18:48;17.45;;;9.70;;
75542;SDS011;64129;53.508;10.476;2022-12-18T00:21:17;21.92;;;11.40;;
75542;SDS011;64129;53.508;10.476;2022-12-18T00:23:45;18.80;;;10.80;;
75542;SDS011;64129;53.508;10.476;2022-12-18T00:26:17;19.58;;;11.85;;
75542;SDS011;64129;53.508;10.476;2022-12-18T00:28:44;19.88;;;11.13;;
75542;SDS011;64129;53.508;10.476;2022-12-18T00:31:12;25.40;;;10.90;;
75542;SDS011;64129;53.508;10.476;2022-12-18T00:33:42;20.60;;;10.57;;
75542;SDS011;64129;53.508;10.476;2022-12-18T00:36:20;18.40;;;10.50;;
75542;SDS011;64129;53.508;10.476;2022-12-18T00:38:50;14.75;;;8.77;;
75542;SDS011;64129;53.508;10.476;2022-12-18T00:41:17;13.75;;;9.70;;
75542;SDS011;64129;53.508;10.476;2022-12-18T00:44:03;19.63;;;10.73;;
75542;SDS011;64129;53.508;10.476;2022-12-18T00:46:31;20.38;;;10.60;;
75542;SDS011;64129;53.508;10.476;2022-12-18T00:48:58;17.40;;;9.88;;
75542;SDS011;64129;53.508;10.476;2022-12-18T00:51:25;18.75;;;9.68;;
75542;SDS011;64129;53.508;10.476;2022-12-18T00:53:52;16.27;;;9.15;;
75542;SDS011;64129;53.508;10.476;2022-12-18T00:56:22;17.38;;;8.35;;
75542;SDS011;64129;53.508;10.476;2022-12-18T00:58:51;15.95;;;8.65;;
75542;SDS011;64129;53.508;10.476;2022-12-18T01:01:18;17.73;;;9.98;;
75542;SDS011;64129;53.508;10.476;2022-12-18T01:03:45;15.65;;;9.20;;
75542;SDS011;64129;53.508;10.476;2022-12-18T01:06:13;14.48;;;8.85;;
75542;SDS011;64129;53.508;10.476;2022-12-18T01:08:41;18.38;;;9.20;;
75542;SDS011;64129;53.508;10.476;2022-12-18T01:11:12;11.40;;;7.68;;
75542;SDS011;64129;53.508;10.476;2022-12-18T01:13:40;16.27;;;8.50;;
75542;SDS011;64129;53.508;10.476;2022-12-18T01:16:07;16.77;;;8.70;;
75542;SDS011;64129;53.508;10.476;2022-12-18T01:18:35;13.88;;;9.40;;
75542;SDS011;64129;53.508;10.476;2022-12-18T01:21:05;16.65;;;9.05;;
75542;SDS011;64129;53.508;10.476;2022-12-18T01:26:07;16.38;;;8.75;;
75542;SDS011;64129;53.508;10.476;2022-12-18T01:28:36;13.55;;;6.97;;
75542;SDS011;64129;53.508;10.476;2022-12-18T01:33:49;14.52;;;8.48;;
75542;SDS011;64129;53.508;10.476;2022-12-18T01:36:26;13.80;;;8.85;;
75542;SDS011;64129;53.508;10.476;2022-12-18T01:38:55;12.98;;;8.15;;
75542;SDS011;64129;53.508;10.476;2022-12-18T01:41:23;15.48;;;7.88;;
75542;SDS011;64129;53.508;10.476;2022-12-18T01:43:56;13.05;;;7.40;;
75542;SDS011;64129;53.508;10.476;2022-12-18T01:46:27;14.80;;;8.52;;
75542;SDS011;64129;53.508;10.476;2022-12-18T01:48:59;15.15;;;8.35;;
75542;SDS011;64129;53.508;10.476;2022-12-18T01:51:27;15.35;;;8.98;;
75542;SDS011;64129;53.508;10.476;2022-12-18T01:53:56;15.68;;;8.95;;
75542;SDS011;64129;53.508;10.476;2022-12-18T01:56:23;15.43;;;8.90;;
75542;SDS011;64129;53.508;10.476;2022-12-18T01:58:54;12.52;;;8.30;;
75542;SDS011;64129;53.508;10.476;2022-12-18T02:01:26;12.63;;;7.47;;
75542;SDS011;64129;53.508;10.476;2022-12-18T02:03:53;15.88;;;9.07;;
75542;SDS011;64129;53.508;10.476;2022-12-18T02:06:21;14.27;;;8.70;;
75542;SDS011;64129;53.508;10.476;2022-12-18T02:12:11;12.88;;;8.10;;
75542;SDS011;64129;53.508;10.476;2022-12-18T02:27:59;16.42;;;10.13;;
75542;SDS011;64129;53.508;10.476;2022-12-18T02:30:29;19.60;;;9.45;;
75542;SDS011;64129;53.508;10.476;2022-12-18T02:33:00;13.55;;;8.48;;
75542;SDS011;64129;53.508;10.476;2022-12-18T02:35:30;15.05;;;8.63;;
75542;SDS011;64129;53.508;10.476;2022-12-18T02:38:00;20.10;;;9.00;;
75542;SDS011;64129;53.508;10.476;2022-12-18T02:40:32;17.77;;;10.43;;
75542;SDS011;64129;53.508;10.476;2022-12-18T02:43:06;16.45;;;9.57;;
75542;SDS011;64129;53.508;10.476;2022-12-18T02:45:54;15.45;;;9.48;;
75542;SDS011;64129;53.508;10.476;2022-12-18T02:48:25;13.80;;;8.32;;
75542;SDS011;64129;53.508;10.476;2022-12-18T02:54:00;17.70;;;9.07;;
75542;SDS011;64129;53.508;10.476;2022-12-18T02:56:36;18.60;;;9.70;;
75542;SDS011;64129;53.508;10.476;2022-12-18T02:59:12;16.00;;;9.07;;
75542;SDS011;64129;53.508;10.476;2022-12-18T03:04:53;16.33;;;8.65;;
75542;SDS011;64129;53.508;10.476;2022-12-18T03:07:34;13.43;;;8.80;;
75542;SDS011;64129;53.508;10.476;2022-12-18T03:10:09;19.50;;;9.63;;
75542;SDS011;64129;53.508;10.476;2022-12-18T03:12:42;19.60;;;10.15;;
75542;SDS011;64129;53.508;10.476;2022-12-18T03:15:18;20.20;;;10.65;;
75542;SDS011;64129;53.508;10.476;2022-12-18T03:17:56;19.40;;;10.48;;
75542;SDS011;64129;53.508;10.476;2022-12-18T03:20:30;18.50;;;10.32;;
75542;SDS011;64129;53.508;10.476;2022-12-18T03:23:02;19.70;;;10.18;;
75542;SDS011;64129;53.508;10.476;2022-12-18T03:25:36;21.45;;;10.30;;
75542;SDS011;64129;53.508;10.476;2022-12-18T03:28:07;16.10;;;9.88;;
75542;SDS011;64129;53.508;10.476;2022-12-18T03:30:39;18.75;;;10.27;;
75542;SDS011;64129;53.508;10.476;2022-12-18T03:35:41;18.58;;;10.10;;
75542;SDS011;64129;53.508;10.476;2022-12-18T03:38:10;18.63;;;11.07;;
75542;SDS011;64129;53.508;10.476;2022-12-18T03:40:44;22.38;;;9.95;;
75542;SDS011;64129;53.508;10.476;2022-12-18T03:46:05;20.48;;;12.02;;
75542;SDS011;64129;53.508;10.476;2022-12-18T03:48:38;19.52;;;11.20;;
75542;SDS011;64129;53.508;10.476;2022-12-18T03:51:31;21.83;;;10.95;;
75542;SDS011;64129;53.508;10.476;2022-12-18T03:54:10;23.02;;;10.60;;
75542;SDS011;64129;53.508;10.476;2022-12-18T03:56:45;20.48;;;11.27;;
75542;SDS011;64129;53.508;10.476;2022-12-18T03:59:15;20.38;;;11.65;;
75542;SDS011;64129;53.508;10.476;2022-12-18T04:01:45;19.77;;;11.35;;
75542;SDS011;64129;53.508;10.476;2022-12-18T04:04:14;24.65;;;12.10;;
75542;SDS011;64129;53.508;10.476;2022-12-18T04:06:44;26.48;;;13.48;;
75542;SDS011;64129;53.508;10.476;2022-12-18T04:09:14;20.20;;;11.60;;
75542;SDS011;64129;53.508;10.476;2022-12-18T04:11:45;18.63;;;12.48;;
75542;SDS011;64129;53.508;10.476;2022-12-18T04:14:13;24.90;;;11.45;;
75542;SDS011;64129;53.508;10.476;2022-12-18T04:16:43;22.17;;;10.88;;
75542;SDS011;64129;53.508;10.476;2022-12-18T04:19:13;20.25;;;11.27;;
75542;SDS011;64129;53.508;10.476;2022-12-18T04:21:42;21.35;;;11.73;;
75542;SDS011;64129;53.508;10.476;2022-12-18T04:24:10;20.55;;;12.40;;
75542;SDS011;64129;53.508;10.476;2022-12-18T04:26:41;25.65;;;12.50;;
75542;SDS011;64129;53.508;10.476;2022-12-18T04:29:12;25.95;;;11.80;;
75542;SDS011;64129;53.508;10.476;2022-12-18T04:31:39;21.40;;;11.07;;
75542;SDS011;64129;53.508;10.476;2022-12-18T04:34:05;32.35;;;13.70;;
75542;SDS011;64129;53.508;10.476;2022-12-18T04:36:38;24.50;;;12.23;;
75542;SDS011;64129;53.508;10.476;2022-12-18T04:39:05;20.33;;;11.70;;
75542;SDS011;64129;53.508;10.476;2022-12-18T04:41:32;25.92;;;11.68;;
75542;SDS011;64129;53.508;10.476;2022-12-18T04:43:59;25.25;;;11.82;;
75542;SDS011;64129;53.508;10.476;2022-12-18T04:46:25;28.15;;;12.10;;
75542;SDS011;64129;53.508;10.476;2022-12-18T04:48:52;25.30;;;12.30;;
75542;SDS011;64129;53.508;10.476;2022-12-18T04:51:18;20.77;;;12.48;;
75542;SDS011;64129;53.508;10.476;2022-12-18T04:53:49;24.80;;;13.07;;
75542;SDS011;64129;53.508;10.476;2022-12-18T04:56:16;24.90;;;13.13;;
75542;SDS011;64129;53.508;10.476;2022-12-18T04:58:43;20.67;;;12.13;;
75542;SDS011;64129;53.508;10.476;2022-12-18T05:01:11;24.00;;;13.15;;
75542;SDS011;64129;53.508;10.476;2022-12-18T05:03:39;25.30;;;11.68;;
75542;SDS011;64129;53.508;10.476;2022-12-18T05:06:06;24.80;;;12.60;;
75542;SDS011;64129;53.508;10.476;2022-12-18T05:08:33;22.00;;;10.75;;
75542;SDS011;64129;53.508;10.476;2022-12-18T05:11:04;27.85;;;13.75;;
75542;SDS011;64129;53.508;10.476;2022-12-18T05:13:33;24.58;;;12.73;;
75542;SDS011;64129;53.508;10.476;2022-12-18T05:16:01;25.30;;;11.70;;
75542;SDS011;64129;53.508;10.476;2022-12-18T05:18:29;23.75;;;12.55;;
75542;SDS011;64129;53.508;10.476;2022-12-18T05:20:56;23.42;;;12.30;;
75542;SDS011;64129;53.508;10.476;2022-12-18T05:23:23;25.13;;;12.57;;
75542;SDS011;64129;53.508;10.476;2022-12-18T05:25:54;22.85;;;12.57;;
75542;SDS011;64129;53.508;10.476;2022-12-18T05:28:22;23.98;;;12.68;;
75542;SDS011;64129;53.508;10.476;2022-12-18T05:30:51;26.52;;;11.60;;
75542;SDS011;64129;53.508;10.476;2022-12-18T05:33:22;24.25;;;11.63;;
75542;SDS011;64129;53.508;10.476;2022-12-18T05:35:50;25.20;;;11.82;;
75542;SDS011;64129;53.508;10.476;2022-12-18T05:38:18;24.75;;;11.60;;
75542;SDS011;64129;53.508;10.476;2022-12-18T05:40:45;22.33;;;11.82;;
75542;SDS011;64129;53.508;10.476;2022-12-18T05:43:13;22.00;;;11.43;;
75542;SDS011;64129;53.508;10.476;2022-12-18T05:45:43;23.67;;;12.68;;
75542;SDS011;64129;53.508;10.476;2022-12-18T05:48:13;22.08;;;11.45;;
75542;SDS011;64129;53.508;10.476;2022-12-18T05:50:40;26.98;;;12.02;;
75542;SDS011;64129;53.508;10.476;2022-12-18T05:53:10;25.80;;;11.43;;
75542;SDS011;64129;53.508;10.476;2022-12-18T05:55:37;24.63;;;10.90;;
75542;SDS011;64129;53.508;10.476;2022-12-18T05:58:05;21.02;;;10.65;;
75542;SDS011;64129;53.508;10.476;2022-12-18T06:00:36;21.08;;;10.52;;
75542;SDS011;64129;53.508;10.476;2022-12-18T06:03:07;23.23;;;11.20;;
75542;SDS011;64129;53.508;10.476;2022-12-18T06:05:39;20.73;;;11.32;;
75542;SDS011;64129;53.508;10.476;2022-12-18T06:08:09;24.52;;;12.10;;
75542;SDS011;64129;53.508;10.476;2022-12-18T06:10:37;23.38;;;12.30;;
75542;SDS011;64129;53.508;10.476;2022-12-18T06:13:04;20.95;;;11.77;;
75542;SDS011;64129;53.508;10.476;2022-12-18T06:15:31;27.92;;;12.30;;
75542;SDS011;64129;53.508;10.476;2022-12-18T06:17:57;26.50;;;12.13;;
75542;SDS011;64129;53.508;10.476;2022-12-18T06:20:24;24.58;;;11.15;;
75542;SDS011;64129;53.508;10.476;2022-12-18T06:22:52;25.77;;;12.57;;
75542;SDS011;64129;53.508;10.476;2022-12-18T06:25:18;23.10;;;12.85;;
75542;SDS011;64129;53.508;10.476;2022-12-18T06:27:46;24.60;;;10.95;;
75542;SDS011;64129;53.508;10.476;2022-12-18T06:30:13;23.10;;;11.02;;
75542;SDS011;64129;53.508;10.476;2022-12-18T06:32:40;25.50;;;11.55;;
75542;SDS011;64129;53.508;10.476;2022-12-18T06:35:07;24.88;;;11.63;;
75542;SDS011;64129;53.508;10.476;2022-12-18T06:37:34;23.25;;;10.90;;
75542;SDS011;64129;53.508;10.476;2022-12-18T06:40:00;23.77;;;10.65;;
75542;SDS011;64129;53.508;10.476;2022-12-18T06:42:28;25.85;;;12.40;;
75542;SDS011;64129;53.508;10.476;2022-12-18T06:44:54;20.52;;;10.23;;
75542;SDS011;64129;53.508;10.476;2022-12-18T06:47:21;27.30;;;11.70;;
75542;SDS011;64129;53.508;10.476;2022-12-18T06:49:47;22.05;;;10.88;;
75542;SDS011;64129;53.508;10.476;2022-12-18T06:52:17;24.45;;;11.48;;
75542;SDS011;64129;53.508;10.476;2022-12-18T06:54:43;20.83;;;10.27;;
75542;SDS011;64129;53.508;10.476;2022-12-18T06:57:10;22.77;;;10.10;;
75542;SDS011;64129;53.508;10.476;2022-12-18T06:59:36;22.05;;;11.38;;
75542;SDS011;64129;53.508;10.476;2022-12-18T07:02:03;24.80;;;11.38;;
75542;SDS011;64129;53.508;10.476;2022-12-18T07:04:29;23.27;;;11.50;;
75542;SDS011;64129;53.508;10.476;2022-12-18T07:06:56;24.45;;;11.70;;
75542;SDS011;64129;53.508;10.476;2022-12-18T07:09:24;28.60;;;13.07;;
75542;SDS011;64129;53.508;10.476;2022-12-18T07:11:51;30.48;;;15.05;;
75542;SDS011;64129;53.508;10.476;2022-12-18T07:14:17;27.25;;;14.65;;
75542;SDS011;64129;53.508;10.476;2022-12-18T07:16:44;28.05;;;13.23;;
75542;SDS011;64129;53.508;10.476;2022-12-18T07:19:10;26.65;;;12.25;;
75542;SDS011;64129;53.508;10.476;2022-12-18T07:21:37;21.27;;;12.35;;
75542;SDS011;64129;53.508;10.476;2022-12-18T07:24:03;24.90;;;11.82;;
75542;SDS011;64129;53.508;10.476;2022-12-18T07:26:30;31.48;;;12.18;;
75542;SDS011;64129;53.508;10.476;2022-12-18T07:28:57;22.48;;;10.77;;
75542;SDS011;64129;53.508;10.476;2022-12-18T07:31:24;28.15;;;13.18;;
75542;SDS011;64129;53.508;10.476;2022-12-18T07:33:51;22.00;;;11.63;;
75542;SDS011;64129;53.508;10.476;2022-12-18T07:36:18;23.52;;;10.73;;
75542;SDS011;64129;53.508;10.476;2022-12-18T07:38:48;24.63;;;9.55;;
75542;SDS011;64129;53.508;10.476;2022-12-18T07:41:16;26.55;;;10.25;;
75542;SDS011;64129;53.508;10.476;2022-12-18T07:43:43;20.90;;;10.02;;
75542;SDS011;64129;53.508;10.476;2022-12-18T07:46:10;22.25;;;9.57;;
75542;SDS011;64129;53.508;10.476;2022-12-18T07:48:40;24.77;;;10.23;;
75542;SDS011;64129;53.508;10.476;2022-12-18T07:51:08;25.00;;;10.65;;
75542;SDS011;64129;53.508;10.476;2022-12-18T07:53:38;24.85;;;11.65;;
75542;SDS011;64129;53.508;10.476;2022-12-18T07:56:07;22.98;;;9.45;;
75542;SDS011;64129;53.508;10.476;2022-12-18T07:58:53;23.42;;;10.73;;
75542;SDS011;64129;53.508;10.476;2022-12-18T08:01:19;26.52;;;11.57;;
75542;SDS011;64129;53.508;10.476;2022-12-18T08:03:46;24.35;;;10.07;;
75542;SDS011;64129;53.508;10.476;2022-12-18T08:06:12;20.13;;;9.73;;
75542;SDS011;64129;53.508;10.476;2022-12-18T08:08:39;21.92;;;10.70;;
75542;SDS011;64129;53.508;10.476;2022-12-18T08:11:07;26.05;;;11.15;;
75542;SDS011;64129;53.508;10.476;2022-12-18T08:13:33;26.17;;;10.65;;
75542;SDS011;64129;53.508;10.476;2022-12-18T08:16:04;20.88;;;10.63;;
75542;SDS011;64129;53.508;10.476;2022-12-18T08:18:33;23.15;;;10.27;;
75542;SDS011;64129;53.508;10.476;2022-12-18T08:23:37;23.77;;;9.65;;
75542;SDS011;64129;53.508;10.476;2022-12-18T08:26:07;23.92;;;10.55;;
75542;SDS011;64129;53.508;10.476;2022-12-18T08:28:34;19.67;;;9.52;;
75542;SDS011;64129;53.508;10.476;2022-12-18T08:31:01;17.95;;;8.70;;
75542;SDS011;64129;53.508;10.476;2022-12-18T08:33:27;21.73;;;10.25;;
75542;SDS011;64129;53.508;10.476;2022-12-18T08:35:54;20.42;;;10.05;;
75542;SDS011;64129;53.508;10.476;2022-12-18T08:38:20;28.58;;;9.95;;
75542;SDS011;64129;53.508;10.476;2022-12-18T08:40:47;22.08;;;9.85;;
75542;SDS011;64129;53.508;10.476;2022-12-18T08:43:13;9.98;;;6.22;;
75542;SDS011;64129;53.508;10.476;2022-12-18T08:45:58;20.98;;;10.45;;
75542;SDS011;64129;53.508;10.476;2022-12-18T08:48:25;15.45;;;7.80;;
75542;SDS011;64129;53.508;10.476;2022-12-18T08:50:58;23.85;;;10.90;;
75542;SDS011;64129;53.508;10.476;2022-12-18T08:53:26;17.65;;;8.05;;
75542;SDS011;64129;53.508;10.476;2022-12-18T08:55:56;19.38;;;9.90;;
75542;SDS011;64129;53.508;10.476;2022-12-18T08:58:23;17.90;;;8.90;;
75542;SDS011;64129;53.508;10.476;2022-12-18T09:00:49;26.83;;;10.18;;
75542;SDS011;64129;53.508;10.476;2022-12-18T09:03:16;16.10;;;7.00;;
75542;SDS011;64129;53.508;10.476;2022-12-18T09:05:47;17.50;;;9.45;;
75542;SDS011;64129;53.508;10.476;2022-12-18T09:08:14;20.60;;;10.40;;
75542;SDS011;64129;53.508;10.476;2022-12-18T09:10:41;20.73;;;9.77;;
75542;SDS011;64129;53.508;10.476;2022-12-18T09:13:10;27.33;;;11.45;;
75542;SDS011;64129;53.508;10.476;2022-12-18T09:15:41;25.02;;;10.88;;
75542;SDS011;64129;53.508;10.476;2022-12-18T09:18:09;21.75;;;10.77;;
75542;SDS011;64129;53.508;10.476;2022-12-18T09:20:36;26.98;;;12.00;;
75542;SDS011;64129;53.508;10.476;2022-12-18T09:23:03;21.48;;;9.38;;
75542;SDS011;64129;53.508;10.476;2022-12-18T09:25:30;22.35;;;10.55;;
75542;SDS011;64129;53.508;10.476;2022-12-18T09:27:59;27.92;;;11.18;;
75542;SDS011;64129;53.508;10.476;2022-12-18T09:30:26;20.25;;;9.40;;
75542;SDS011;64129;53.508;10.476;2022-12-18T09:32:55;21.10;;;9.52;;
75542;SDS011;64129;53.508;10.476;2022-12-18T09:35:22;23.67;;;10.40;;
75542;SDS011;64129;53.508;10.476;2022-12-18T09:37:49;26.27;;;10.38;;
75542;SDS011;64129;53.508;10.476;2022-12-18T09:40:19;23.67;;;11.13;;
75542;SDS011;64129;53.508;10.476;2022-12-18T09:42:51;28.02;;;12.30;;
75542;SDS011;64129;53.508;10.476;2022-12-18T09:45:22;18.92;;;9.52;;
75542;SDS011;64129;53.508;10.476;2022-12-18T09:47:50;21.13;;;9.82;;
75542;SDS011;64129;53.508;10.476;2022-12-18T09:53:02;22.08;;;10.30;;
75542;SDS011;64129;53.508;10.476;2022-12-18T09:58:15;25.77;;;10.98;;
75542;SDS011;64129;53.508;10.476;2022-12-18T10:00:46;26.20;;;10.23;;
75542;SDS011;64129;53.508;10.476;2022-12-18T10:03:13;18.10;;;8.02;;
75542;SDS011;64129;53.508;10.476;2022-12-18T10:11:21;25.48;;;11.55;;
75542;SDS011;64129;53.508;10.476;2022-12-18T10:14:38;26.38;;;11.35;;
75542;SDS011;64129;53.508;10.476;2022-12-18T10:17:20;24.63;;;11.52;;
75542;SDS011;64129;53.508;10.476;2022-12-18T10:19:51;29.13;;;11.23;;
75542;SDS011;64129;53.508;10.476;2022-12-18T10:22:28;22.55;;;10.70;;
75542;SDS011;64129;53.508;10.476;2022-12-18T10:27:48;24.33;;;10.57;;
75542;SDS011;64129;53.508;10.476;2022-12-18T10:30:19;27.45;;;10.73;;
75542;SDS011;64129;53.508;10.476;2022-12-18T10:32:47;23.83;;;10.88;;
75542;SDS011;64129;53.508;10.476;2022-12-18T10:35:21;26.35;;;12.27;;
75542;SDS011;64129;53.508;10.476;2022-12-18T10:38:02;21.35;;;10.90;;
75542;SDS011;64129;53.508;10.476;2022-12-18T10:40:30;23.77;;;10.43;;
75542;SDS011;64129;53.508;10.476;2022-12-18T10:43:10;20.13;;;10.27;;
75542;SDS011;64129;53.508;10.476;2022-12-18T10:45:39;23.45;;;10.02;;
75542;SDS011;64129;53.508;10.476;2022-12-18T10:48:17;25.60;;;10.85;;
75542;SDS011;64129;53.508;10.476;2022-12-18T10:50:46;21.35;;;9.73;;
75542;SDS011;64129;53.508;10.476;2022-12-18T10:53:36;22.55;;;8.88;;
75542;SDS011;64129;53.508;10.476;2022-12-18T10:56:04;18.13;;;9.85;;
75542;SDS011;64129;53.508;10.476;2022-12-18T10:58:33;25.05;;;10.15;;
75542;SDS011;64129;53.508;10.476;2022-12-18T11:01:11;23.67;;;9.68;;
75542;SDS011;64129;53.508;10.476;2022-12-18T11:03:47;11.70;;;5.68;;
75542;SDS011;64129;53.508;10.476;2022-12-18T11:06:27;19.23;;;10.75;;
75542;SDS011;64129;53.508;10.476;2022-12-18T11:09:01;18.52;;;8.63;;
75542;SDS011;64129;53.508;10.476;2022-12-18T11:11:29;18.70;;;8.23;;
75542;SDS011;64129;53.508;10.476;2022-12-18T11:16:28;26.63;;;10.60;;
75542;SDS011;64129;53.508;10.476;2022-12-18T11:19:16;25.25;;;11.05;;
75542;SDS011;64129;53.508;10.476;2022-12-18T11:21:48;18.98;;;7.15;;
75542;SDS011;64129;53.508;10.476;2022-12-18T11:24:39;23.05;;;9.15;;
75542;SDS011;64129;53.508;10.476;2022-12-18T11:27:03;20.30;;;9.77;;
75542;SDS011;64129;53.508;10.476;2022-12-18T11:29:35;26.88;;;10.65;;
75542;SDS011;64129;53.508;10.476;2022-12-18T11:34:48;21.17;;;8.82;;
75542;SDS011;64129;53.508;10.476;2022-12-18T11:37:21;13.88;;;6.38;;
75542;SDS011;64129;53.508;10.476;2022-12-18T11:42:54;14.23;;;6.65;;
75542;SDS011;64129;53.508;10.476;2022-12-18T11:45:34;14.85;;;8.10;;
75542;SDS011;64129;53.508;10.476;2022-12-18T11:50:50;18.52;;;8.73;;
75542;SDS011;64129;53.508;10.476;2022-12-18T11:53:18;20.88;;;8.00;;
75542;SDS011;64129;53.508;10.476;2022-12-18T11:55:50;23.48;;;10.30;;
75542;SDS011;64129;53.508;10.476;2022-12-18T11:58:27;22.23;;;10.65;;
75542;SDS011;64129;53.508;10.476;2022-12-18T12:07:01;18.23;;;7.75;;
75542;SDS011;64129;53.508;10.476;2022-12-18T12:09:49;24.25;;;10.45;;
75542;SDS011;64129;53.508;10.476;2022-12-18T12:15:34;11.90;;;7.00;;
75542;SDS011;64129;53.508;10.476;2022-12-18T12:18:13;18.73;;;8.13;;
75542;SDS011;64129;53.508;10.476;2022-12-18T12:26:50;21.85;;;9.18;;
75542;SDS011;64129;53.508;10.476;2022-12-18T12:34:59;12.60;;;5.35;;
75542;SDS011;64129;53.508;10.476;2022-12-18T12:37:46;16.77;;;7.30;;
75542;SDS011;64129;53.508;10.476;2022-12-18T12:40:45;15.75;;;7.80;;
75542;SDS011;64129;53.508;10.476;2022-12-18T12:46:10;17.05;;;7.90;;
75542;SDS011;64129;53.508;10.476;2022-12-18T12:51:11;16.50;;;7.30;;
75542;SDS011;64129;53.508;10.476;2022-12-18T12:53:42;17.50;;;7.57;;
75542;SDS011;64129;53.508;10.476;2022-12-18T12:56:10;18.65;;;8.68;;
75542;SDS011;64129;53.508;10.476;2022-12-18T13:04:12;21.02;;;8.05;;
75542;SDS011;64129;53.508;10.476;2022-12-18T13:06:50;13.23;;;6.07;;
75542;SDS011;64129;53.508;10.476;2022-12-18T13:09:30;21.63;;;8.82;;
75542;SDS011;64129;53.508;10.476;2022-12-18T13:12:07;19.38;;;8.88;;
75542;SDS011;64129;53.508;10.476;2022-12-18T13:15:11;29.58;;;11.18;;
75542;SDS011;64129;53.508;10.476;2022-12-18T13:17:46;22.63;;;9.75;;
75542;SDS011;64129;53.508;10.476;2022-12-18T13:20:13;24.13;;;9.02;;
75542;SDS011;64129;53.508;10.476;2022-12-18T13:22:45;25.35;;;10.95;;
75542;SDS011;64129;53.508;10.476;2022-12-18T13:25:34;25.15;;;10.02;;
75542;SDS011;64129;53.508;10.476;2022-12-18T13:41:21;29.42;;;11.48;;
75542;SDS011;64129;53.508;10.476;2022-12-18T13:43:53;25.77;;;10.45;;
75542;SDS011;64129;53.508;10.476;2022-12-18T13:46:30;29.17;;;12.00;;
75542;SDS011;64129;53.508;10.476;2022-12-18T13:51:42;31.08;;;12.00;;
75542;SDS011;64129;53.508;10.476;2022-12-18T13:56:51;30.02;;;11.60;;
75542;SDS011;64129;53.508;10.476;2022-12-18T13:59:21;33.05;;;13.23;;
75542;SDS011;64129;53.508;10.476;2022-12-18T14:04:18;31.45;;;12.52;;
75542;SDS011;64129;53.508;10.476;2022-12-18T14:09:23;33.38;;;12.25;;
75542;SDS011;64129;53.508;10.476;2022-12-18T14:11:52;32.45;;;13.57;;
75542;SDS011;64129;53.508;10.476;2022-12-18T14:14:41;29.00;;;13.98;;
75542;SDS011;64129;53.508;10.476;2022-12-18T14:17:10;27.83;;;11.00;;
75542;SDS011;64129;53.508;10.476;2022-12-18T14:19:40;42.33;;;16.60;;
75542;SDS011;64129;53.508;10.476;2022-12-18T14:22:13;36.33;;;14.38;;
75542;SDS011;64129;53.508;10.476;2022-12-18T14:24:42;32.85;;;11.88;;
75542;SDS011;64129;53.508;10.476;2022-12-18T14:27:13;39.38;;;16.58;;
75542;SDS011;64129;53.508;10.476;2022-12-18T14:29:47;38.95;;;13.93;;
75542;SDS011;64129;53.508;10.476;2022-12-18T14:32:14;41.38;;;15.13;;
75542;SDS011;64129;53.508;10.476;2022-12-18T14:34:44;41.42;;;15.32;;
75542;SDS011;64129;53.508;10.476;2022-12-18T14:37:13;37.30;;;17.17;;
75542;SDS011;64129;53.508;10.476;2022-12-18T14:39:51;14.50;;;7.32;;
75542;SDS011;64129;53.508;10.476;2022-12-18T14:42:35;30.02;;;13.25;;
75542;SDS011;64129;53.508;10.476;2022-12-18T14:51:06;31.98;;;14.65;;
75542;SDS011;64129;53.508;10.476;2022-12-18T14:53:42;33.17;;;15.45;;
75542;SDS011;64129;53.508;10.476;2022-12-18T14:56:15;34.28;;;15.35;;
75542;SDS011;64129;53.508;10.476;2022-12-18T14:58:52;34.05;;;13.88;;
75542;SDS011;64129;53.508;10.476;2022-12-18T15:01:28;32.88;;;12.80;;
75542;SDS011;64129;53.508;10.476;2022-12-18T15:03:58;16.42;;;7.18;;
75542;SDS011;64129;53.508;10.476;2022-12-18T15:09:04;32.35;;;13.85;;
75542;SDS011;64129;53.508;10.476;2022-12-18T15:11:47;33.28;;;13.55;;
75542;SDS011;64129;53.508;10.476;2022-12-18T15:17:20;28.40;;;11.77;;
75542;SDS011;64129;53.508;10.476;2022-12-18T15:19:51;38.78;;;14.32;;
75542;SDS011;64129;53.508;10.476;2022-12-18T15:22:26;33.58;;;13.05;;
75542;SDS011;64129;53.508;10.476;2022-12-18T15:24:55;30.85;;;12.50;;
75542;SDS011;64129;53.508;10.476;2022-12-18T15:27:27;26.70;;;10.65;;
75542;SDS011;64129;53.508;10.476;2022-12-18T15:30:21;31.40;;;12.32;;
75542;SDS011;64129;53.508;10.476;2022-12-18T15:32:50;23.00;;;11.07;;
75542;SDS011;64129;53.508;10.476;2022-12-18T15:35:19;34.80;;;13.35;;
75542;SDS011;64129;53.508;10.476;2022-12-18T15:37:48;33.70;;;12.98;;
75542;SDS011;64129;53.508;10.476;2022-12-18T15:40:16;37.05;;;13.23;;
75542;SDS011;64129;53.508;10.476;2022-12-18T15:42:45;16.83;;;8.85;;
75542;SDS011;64129;53.508;10.476;2022-12-18T15:45:32;23.70;;;9.77;;
75542;SDS011;64129;53.508;10.476;2022-12-18T15:47:59;18.27;;;6.97;;
75542;SDS011;64129;53.508;10.476;2022-12-18T15:50:25;29.40;;;11.60;;
75542;SDS011;64129;53.508;10.476;2022-12-18T15:52:53;19.75;;;8.20;;
75542;SDS011;64129;53.508;10.476;2022-12-18T15:55:22;22.92;;;11.00;;
75542;SDS011;64129;53.508;10.476;2022-12-18T16:00:36;12.63;;;7.07;;
75542;SDS011;64129;53.508;10.476;2022-12-18T16:03:05;13.85;;;8.18;;
75542;SDS011;64129;53.508;10.476;2022-12-18T16:05:32;29.48;;;12.32;;
75542;SDS011;64129;53.508;10.476;2022-12-18T16:07:59;18.73;;;8.27;;
75542;SDS011;64129;53.508;10.476;2022-12-18T16:10:25;18.58;;;9.25;;
75542;SDS011;64129;53.508;10.476;2022-12-18T16:12:52;22.70;;;9.80;;
75542;SDS011;64129;53.508;10.476;2022-12-18T16:15:19;27.55;;;12.43;;
75542;SDS011;64129;53.508;10.476;2022-12-18T16:17:49;30.58;;;13.02;;
75542;SDS011;64129;53.508;10.476;2022-12-18T16:20:16;16.75;;;8.50;;
75542;SDS011;64129;53.508;10.476;2022-12-18T16:22:45;16.05;;;8.30;;
75542;SDS011;64129;53.508;10.476;2022-12-18T16:25:30;24.13;;;10.52;;
75542;SDS011;64129;53.508;10.476;2022-12-18T16:27:57;28.20;;;12.70;;
75542;SDS011;64129;53.508;10.476;2022-12-18T16:30:25;24.83;;;11.75;;
75542;SDS011;64129;53.508;10.476;2022-12-18T16:32:54;24.52;;;10.35;;
75542;SDS011;64129;53.508;10.476;2022-12-18T16:35:21;29.88;;;13.00;;
75542;SDS011;64129;53.508;10.476;2022-12-18T16:37:47;28.38;;;12.10;;
75542;SDS011;64129;53.508;10.476;2022-12-18T16:40:14;19.70;;;9.48;;
75542;SDS011;64129;53.508;10.476;2022-12-18T16:42:43;15.13;;;7.93;;
75542;SDS011;64129;53.508;10.476;2022-12-18T16:45:12;13.70;;;7.28;;